createdAt,value
2018-11-28T00:04:26.017Z,968.2
2018-11-28T00:14:29.598Z,968.3
2018-11-28T00:24:33.184Z,968.2
2018-11-28T00:34:36.755Z,968.2
2018-11-28T00:44:40.374Z,968.3
2018-11-28T00:54:44.011Z,968.5
2018-11-28T01:04:47.648Z,968.5
2018-11-28T01:14:51.234Z,968.6
2018-11-28T01:24:54.848Z,968.7
2018-11-28T01:34:58.489Z,968.7
2018-11-28T01:45:02.012Z,968.7
2018-11-28T01:55:05.634Z,968.7
2018-11-28T02:05:09.287Z,968.7
2018-11-28T02:15:12.885Z,968.8
2018-11-28T02:25:16.420Z,968.8
2018-11-28T02:35:20.057Z,968.8
2018-11-28T02:45:23.745Z,968.9
2018-11-28T02:55:27.389Z,968.7
2018-11-28T03:05:31.016Z,968.8
2018-11-28T03:15:34.636Z,968.7
2018-11-28T03:25:38.274Z,968.7
2018-11-28T03:35:41.939Z,968.6
2018-11-28T03:45:45.543Z,968.9
2018-11-28T03:55:49.203Z,968.9
2018-11-28T04:05:52.785Z,968.9
2018-11-28T04:15:56.412Z,969.1
2018-11-28T04:26:00.018Z,969.1
2018-11-28T04:36:03.589Z,969
2018-11-28T04:46:07.114Z,969.2
2018-11-28T04:56:10.770Z,969.2
2018-11-28T05:06:14.339Z,969.2
2018-11-28T05:16:17.999Z,969.3
2018-11-28T05:26:21.557Z,969.3
2018-11-28T05:36:25.144Z,969.5
2018-11-28T05:46:28.802Z,969.4
2018-11-28T05:56:32.445Z,969.5
2018-11-28T06:06:36.142Z,969.6
2018-11-28T06:16:39.708Z,969.5
2018-11-28T06:26:43.315Z,969.8
2018-11-28T06:36:46.967Z,964
2018-11-28T06:46:50.544Z,970.5
2018-11-28T06:56:54.174Z,970.4
2018-11-28T07:06:57.761Z,970.4
2018-11-28T07:17:01.376Z,970.4
2018-11-28T07:27:04.971Z,970.3
2018-11-28T07:37:08.563Z,970.3
2018-11-28T07:47:12.193Z,970.5
2018-11-28T07:57:15.813Z,970.3
2018-11-28T08:07:19.562Z,970.1
2018-11-28T08:17:23.173Z,970
2018-11-28T08:27:26.776Z,969.7
2018-11-28T08:37:30.355Z,969.6
2018-11-28T08:47:34.194Z,969.5
2018-11-28T08:57:37.931Z,969.6
2018-11-28T09:07:41.563Z,969.5
2018-11-28T09:17:45.256Z,969.5
2018-11-28T09:27:49.116Z,969.6
2018-11-28T09:37:52.732Z,969.5
2018-11-28T09:47:56.256Z,969.6
2018-11-28T09:57:59.962Z,969.6
2018-11-28T10:08:03.541Z,969.4
2018-11-28T10:18:07.433Z,969.4
2018-11-28T10:28:11.022Z,969.2
2018-11-28T10:38:14.770Z,969
2018-11-28T10:48:18.365Z,968.9
2018-11-28T10:58:22.011Z,968.6
2018-11-28T11:08:25.699Z,968.5
2018-11-28T11:18:29.601Z,968.6
2018-11-28T11:28:33.461Z,968.5
2018-11-28T11:38:37.079Z,968.4
2018-11-28T11:48:40.910Z,968.3
2018-11-28T11:58:44.518Z,968.3
2018-11-28T12:08:48.081Z,968
2018-11-28T12:18:51.679Z,967.9
2018-11-28T12:28:55.374Z,967.8
2018-11-28T12:38:58.978Z,967.6
2018-11-28T12:49:02.551Z,967.6
2018-11-28T12:59:06.116Z,967.5
2018-11-28T13:09:09.714Z,967.6
2018-11-28T13:19:13.325Z,967.5
2018-11-28T13:29:16.932Z,967.2
2018-11-28T13:39:20.790Z,967.2
2018-11-28T13:49:24.566Z,967.3
2018-11-28T13:59:28.472Z,967.2
2018-11-28T14:09:32.064Z,967
2018-11-28T14:19:35.657Z,967
2018-11-28T14:29:39.375Z,966.9
2018-11-28T14:39:42.981Z,966.9
2018-11-28T14:49:46.640Z,966.8
2018-11-28T14:59:50.263Z,966.9
2018-11-28T15:09:53.817Z,967
2018-11-28T15:19:57.367Z,966.9
2018-11-28T15:30:00.980Z,966.8
2018-11-28T16:02:05.378Z,968.6
2018-11-28T16:12:09.154Z,968.7
2018-11-28T16:22:13.082Z,968.7
2018-11-28T16:32:16.602Z,968.7
2018-11-28T16:42:20.349Z,968.7
2018-11-28T16:52:24.054Z,968.7
2018-11-28T17:02:27.582Z,969.1
2018-11-28T17:12:31.156Z,969
2018-11-28T17:32:36.224Z,969.3
2018-11-28T17:43:08.606Z,969.5
2018-11-28T17:57:17.642Z,969.4
2018-11-28T18:04:23.304Z,969.3
2018-11-28T18:04:55.148Z,969.3
2018-11-28T18:40:32.986Z,969.6
